Time;durP1;ratioP1;P1;durP2;ratioP2;P2;SDS_P1;SDS_P2;PMS_P1;PMS_P2;Temp;Humidity;BMP_temperature;BMP_pressure;BME280_temperature;BME280_humidity;BME280_pressure;Samples;Min_cycle;Max_cycle;Signal;HPM_P1;HPM_P2
2022/05/08 00:00:16;;;;;;;20.25;4.47;;;;;;;;;;5025852;28;20511;-62
2022/05/08 00:02:42;;;;;;;23.00;4.82;;;;;;;;;;5029931;28;20108;-62
2022/05/08 00:05:09;;;;;;;22.45;4.43;;;;;;;;;;5030614;28;20499;-61
2022/05/08 00:07:35;;;;;;;15.60;4.15;;;;;;;;;;5019847;28;20041;-62
2022/05/08 00:10:01;;;;;;;20.05;4.70;;;;;;;;;;5030718;28;20509;-62
2022/05/08 00:12:27;;;;;;;20.98;4.47;;;;;;;;;;5030865;28;20037;-62
2022/05/08 00:14:54;;;;;;;16.65;4.40;;;;;;;;;;5028516;28;20039;-62
2022/05/08 00:17:20;;;;;;;24.08;4.75;;;;;;;;;;5029735;28;20041;-62
2022/05/08 00:19:49;;;;;;;20.27;4.60;;;;;;;;;;5029471;28;20040;-62
2022/05/08 00:22:15;;;;;;;21.13;4.97;;;;;;;;;;5006847;28;20050;-62
2022/05/08 00:24:41;;;;;;;18.38;4.13;;;;;;;;;;5030511;28;20553;-62
2022/05/08 00:27:07;;;;;;;19.27;4.93;;;;;;;;;;5031271;28;20033;-61
2022/05/08 00:29:33;;;;;;;18.30;4.68;;;;;;;;;;5024715;28;20450;-62
2022/05/08 00:31:59;;;;;;;17.33;3.92;;;;;;;;;;5026907;28;20048;-62
2022/05/08 00:34:26;;;;;;;15.65;4.43;;;;;;;;;;5031260;28;20037;-61
2022/05/08 00:36:51;;;;;;;23.63;4.82;;;;;;;;;;5031170;28;20084;-62
2022/05/08 00:39:21;;;;;;;25.02;5.63;;;;;;;;;;5029390;28;20073;-61
2022/05/08 00:41:47;;;;;;;20.63;5.00;;;;;;;;;;5031184;28;20041;-62
2022/05/08 00:44:13;;;;;;;21.65;5.47;;;;;;;;;;5030004;28;20065;-62
2022/05/08 00:46:40;;;;;;;22.63;5.70;;;;;;;;;;5031286;28;20033;-62
2022/05/08 00:49:06;;;;;;;22.73;5.22;;;;;;;;;;5033864;28;20479;-62
2022/05/08 00:51:32;;;;;;;24.52;5.15;;;;;;;;;;5035463;28;20048;-62
2022/05/08 00:53:59;;;;;;;17.65;5.07;;;;;;;;;;5040151;28;20367;-62
2022/05/08 00:56:25;;;;;;;21.25;5.22;;;;;;;;;;5030742;28;20042;-62
2022/05/08 00:58:52;;;;;;;21.90;5.18;;;;;;;;;;5034744;28;20044;-62
2022/05/08 01:01:18;;;;;;;24.08;5.30;;;;;;;;;;5034471;28;20080;-62
2022/05/08 01:03:45;;;;;;;25.52;5.55;;;;;;;;;;5029514;28;20084;-61
2022/05/08 01:06:15;;;;;;;21.70;5.30;;;;;;;;;;5029528;28;20329;-62
2022/05/08 01:08:42;;;;;;;22.85;5.15;;;;;;;;;;5033667;28;20514;-62
2022/05/08 01:11:09;;;;;;;19.20;4.85;;;;;;;;;;5034138;28;20044;-62
2022/05/08 01:13:35;;;;;;;19.65;5.75;;;;;;;;;;5034549;28;20506;-62
2022/05/08 01:16:01;;;;;;;19.95;5.40;;;;;;;;;;5027410;28;20038;-62
2022/05/08 01:18:27;;;;;;;18.30;4.60;;;;;;;;;;5032305;28;20518;-62
2022/05/08 01:20:53;;;;;;;24.58;5.35;;;;;;;;;;5032003;28;20121;-62
2022/05/08 01:23:21;;;;;;;29.10;6.25;;;;;;;;;;5033484;28;20053;-61
2022/05/08 01:25:54;;;;;;;28.25;6.18;;;;;;;;;;5033999;28;20046;-62
2022/05/08 01:28:21;;;;;;;27.90;6.10;;;;;;;;;;5033560;28;20038;-62
2022/05/08 01:30:48;;;;;;;19.08;4.90;;;;;;;;;;5033450;28;20040;-62
2022/05/08 01:33:15;;;;;;;27.92;5.63;;;;;;;;;;5033751;28;20372;-62
2022/05/08 01:35:42;;;;;;;25.40;5.60;;;;;;;;;;5032898;28;20033;-62
2022/05/08 01:38:08;;;;;;;24.45;5.80;;;;;;;;;;5032241;28;20403;-62
2022/05/08 01:40:34;;;;;;;22.63;5.35;;;;;;;;;;5034310;28;20041;-62
2022/05/08 01:43:00;;;;;;;18.17;5.47;;;;;;;;;;5032649;28;20096;-62
2022/05/08 01:45:27;;;;;;;20.65;5.10;;;;;;;;;;5033055;28;20487;-62
2022/05/08 01:50:38;;;;;;;15.07;5.32;;;;;;;;;;5032742;28;20045;-61
2022/05/08 01:53:05;;;;;;;19.20;5.60;;;;;;;;;;5033568;28;20064;-61
2022/05/08 01:55:31;;;;;;;16.05;5.38;;;;;;;;;;5032726;28;20515;-61
2022/05/08 01:57:57;;;;;;;13.05;4.85;;;;;;;;;;5031490;28;20033;-61
2022/05/08 02:00:23;;;;;;;20.80;5.65;;;;;;;;;;5033000;28;20049;-62
2022/05/08 02:02:50;;;;;;;23.27;5.30;;;;;;;;;;5032964;28;20507;-62
2022/05/08 02:05:17;;;;;;;15.48;5.07;;;;;;;;;;5028180;28;20120;-62
2022/05/08 02:07:44;;;;;;;18.90;5.60;;;;;;;;;;5032432;28;20030;-62
2022/05/08 02:10:10;;;;;;;20.33;5.22;;;;;;;;;;5031678;28;20407;-62
2022/05/08 02:12:36;;;;;;;16.75;5.40;;;;;;;;;;5033252;28;20083;-62
2022/05/08 02:15:02;;;;;;;17.10;5.38;;;;;;;;;;5033021;28;20522;-62
2022/05/08 02:17:28;;;;;;;18.63;5.35;;;;;;;;;;5023090;28;20037;-62
2022/05/08 02:19:54;;;;;;;11.32;5.30;;;;;;;;;;5032238;28;20069;-62
2022/05/08 02:22:20;;;;;;;11.85;4.28;;;;;;;;;;5028425;28;20522;-62
2022/05/08 02:24:47;;;;;;;11.90;4.22;;;;;;;;;;5032803;28;20120;-62
2022/05/08 02:27:13;;;;;;;19.00;5.03;;;;;;;;;;5030667;28;20052;-62
2022/05/08 02:29:39;;;;;;;16.10;4.72;;;;;;;;;;5015281;28;20172;-62
2022/05/08 02:32:05;;;;;;;20.33;5.00;;;;;;;;;;5033750;28;20521;-62
2022/05/08 02:34:31;;;;;;;16.58;5.10;;;;;;;;;;5032352;28;20399;-62
2022/05/08 02:36:57;;;;;;;14.27;4.65;;;;;;;;;;5013609;28;20042;-62
2022/05/08 02:39:23;;;;;;;15.93;5.10;;;;;;;;;;5031257;28;20068;-62
2022/05/08 02:41:50;;;;;;;15.32;4.57;;;;;;;;;;5031682;28;20051;-62
2022/05/08 02:44:17;;;;;;;14.23;4.75;;;;;;;;;;5032607;28;20041;-62
2022/05/08 02:46:43;;;;;;;14.05;4.78;;;;;;;;;;5080625;23;20127;-60
2022/05/08 02:49:09;;;;;;;16.33;4.97;;;;;;;;;;5052763;28;20067;-60
2022/05/08 02:51:34;;;;;;;13.77;4.60;;;;;;;;;;5046986;28;20490;-60
2022/05/08 02:54:00;;;;;;;18.42;5.10;;;;;;;;;;5071801;28;20090;-60
2022/05/08 02:59:11;;;;;;;16.67;4.85;;;;;;;;;;5051002;28;20503;-60
2022/05/08 03:01:37;;;;;;;18.73;5.25;;;;;;;;;;5039458;28;20485;-60
2022/05/08 03:04:03;;;;;;;14.13;4.70;;;;;;;;;;5033856;28;20037;-60
2022/05/08 03:06:29;;;;;;;16.02;4.32;;;;;;;;;;5051277;28;20457;-60
2022/05/08 03:08:55;;;;;;;15.70;5.00;;;;;;;;;;5027445;28;20037;-60
2022/05/08 03:11:28;;;;;;;13.88;5.38;;;;;;;;;;5052026;28;20518;-60
2022/05/08 03:13:55;;;;;;;12.90;4.90;;;;;;;;;;5050484;28;20482;-60
2022/05/08 03:16:22;;;;;;;15.48;4.80;;;;;;;;;;5052082;28;20522;-60
2022/05/08 03:18:48;;;;;;;13.52;4.18;;;;;;;;;;5050845;28;20048;-60
2022/05/08 03:21:15;;;;;;;11.68;3.75;;;;;;;;;;5050957;28;20052;-60
2022/05/08 03:23:42;;;;;;;12.00;4.78;;;;;;;;;;5045651;28;20069;-60
2022/05/08 03:26:08;;;;;;;19.65;4.75;;;;;;;;;;5049331;28;20040;-60
2022/05/08 03:28:35;;;;;;;14.85;4.60;;;;;;;;;;5046245;28;20033;-60
2022/05/08 03:31:01;;;;;;;12.55;4.40;;;;;;;;;;5051186;28;20068;-60
2022/05/08 03:33:30;;;;;;;10.80;3.90;;;;;;;;;;5047460;28;20147;-60
2022/05/08 03:35:55;;;;;;;10.93;3.97;;;;;;;;;;5040544;28;20041;-59
2022/05/08 03:38:21;;;;;;;7.93;3.70;;;;;;;;;;5050710;28;20037;-60
2022/05/08 03:40:48;;;;;;;10.02;3.83;;;;;;;;;;5051379;28;20080;-60
2022/05/08 03:43:14;;;;;;;7.55;2.90;;;;;;;;;;5050453;28;20037;-60
2022/05/08 03:45:40;;;;;;;10.57;3.40;;;;;;;;;;5051789;28;20216;-59
2022/05/08 03:48:06;;;;;;;8.30;3.58;;;;;;;;;;5049590;28;20040;-59
2022/05/08 03:50:32;;;;;;;11.20;4.00;;;;;;;;;;5046952;28;20065;-59
2022/05/08 03:52:59;;;;;;;8.18;3.67;;;;;;;;;;5040661;28;20504;-59
2022/05/08 03:55:25;;;;;;;3.83;2.38;;;;;;;;;;5051489;28;20375;-59
2022/05/08 03:57:51;;;;;;;3.65;1.52;;;;;;;;;;5049417;28;20029;-60
2022/05/08 04:00:18;;;;;;;6.97;2.70;;;;;;;;;;5032402;28;20037;-59
2022/05/08 04:02:44;;;;;;;5.07;2.45;;;;;;;;;;5046566;28;20065;-59
2022/05/08 04:05:10;;;;;;;8.57;3.20;;;;;;;;;;5017669;28;20502;-59
2022/05/08 04:07:40;;;;;;;7.60;2.80;;;;;;;;;;5044074;28;20041;-59
2022/05/08 04:10:07;;;;;;;6.03;3.00;;;;;;;;;;5050772;28;20482;-60
2022/05/08 04:12:33;;;;;;;5.65;2.95;;;;;;;;;;5051707;28;20048;-60
2022/05/08 04:14:59;;;;;;;7.45;2.83;;;;;;;;;;5050263;28;20514;-60
2022/05/08 04:17:28;;;;;;;7.97;2.70;;;;;;;;;;5042335;28;20064;-60
2022/05/08 04:19:54;;;;;;;5.75;3.20;;;;;;;;;;5049281;28;20044;-60
2022/05/08 04:25:07;;;;;;;11.27;3.88;;;;;;;;;;5050279;28;20033;-60
2022/05/08 04:27:34;;;;;;;6.85;3.05;;;;;;;;;;5051235;28;20052;-60
2022/05/08 04:30:00;;;;;;;3.85;2.80;;;;;;;;;;5050098;28;20161;-60
2022/05/08 04:32:26;;;;;;;6.45;3.20;;;;;;;;;;5041586;28;20300;-60
2022/05/08 04:34:52;;;;;;;6.65;3.60;;;;;;;;;;5050023;28;20032;-60
2022/05/08 04:37:18;;;;;;;9.38;3.65;;;;;;;;;;5049912;28;20162;-60
2022/05/08 04:39:44;;;;;;;5.65;3.30;;;;;;;;;;5032808;28;20049;-60
2022/05/08 04:42:10;;;;;;;10.93;3.42;;;;;;;;;;5051567;28;20037;-60
2022/05/08 04:44:36;;;;;;;10.25;3.97;;;;;;;;;;5049942;28;20056;-60
2022/05/08 04:47:02;;;;;;;11.15;4.07;;;;;;;;;;5049503;28;20044;-60
2022/05/08 04:49:29;;;;;;;15.02;4.68;;;;;;;;;;5048945;28;20033;-60
2022/05/08 04:51:55;;;;;;;13.05;4.75;;;;;;;;;;5035656;28;20073;-60
2022/05/08 04:54:24;;;;;;;17.15;4.90;;;;;;;;;;5043115;28;20069;-60
2022/05/08 04:56:51;;;;;;;14.68;4.82;;;;;;;;;;5050400;28;20054;-60
2022/05/08 04:59:17;;;;;;;12.88;5.25;;;;;;;;;;5049056;28;20041;-60
2022/05/08 05:01:43;;;;;;;13.35;4.63;;;;;;;;;;5050409;28;20040;-60
2022/05/08 05:04:09;;;;;;;17.20;5.00;;;;;;;;;;5039166;28;20033;-60
2022/05/08 05:06:35;;;;;;;19.23;5.57;;;;;;;;;;5052972;28;20045;-60
2022/05/08 05:09:01;;;;;;;19.98;5.10;;;;;;;;;;5049921;28;20057;-60
2022/05/08 05:11:27;;;;;;;15.15;5.07;;;;;;;;;;5050160;28;20403;-60
2022/05/08 05:13:53;;;;;;;14.15;5.07;;;;;;;;;;5049289;28;20037;-59
2022/05/08 05:16:19;;;;;;;16.50;4.75;;;;;;;;;;5042579;28;20075;-59
2022/05/08 05:18:45;;;;;;;13.57;5.40;;;;;;;;;;5049013;28;20048;-59
2022/05/08 05:21:11;;;;;;;17.15;5.35;;;;;;;;;;5049974;28;20032;-59
2022/05/08 05:23:37;;;;;;;17.80;5.78;;;;;;;;;;5050137;28;20044;-59
2022/05/08 05:26:03;;;;;;;16.50;4.82;;;;;;;;;;5050550;28;20411;-59
2022/05/08 05:28:30;;;;;;;14.63;4.82;;;;;;;;;;5048399;28;20029;-59
2022/05/08 05:30:56;;;;;;;19.15;5.10;;;;;;;;;;5050627;28;20487;-59
2022/05/08 05:33:22;;;;;;;16.42;4.95;;;;;;;;;;5029578;28;20251;-59
2022/05/08 05:35:48;;;;;;;14.02;4.82;;;;;;;;;;5048186;28;20055;-59
2022/05/08 05:38:14;;;;;;;16.88;4.78;;;;;;;;;;5053420;28;20083;-59
2022/05/08 05:40:40;;;;;;;14.85;4.70;;;;;;;;;;5052754;28;20519;-59
2022/05/08 05:43:06;;;;;;;17.73;4.70;;;;;;;;;;5046359;28;20043;-59
2022/05/08 05:45:32;;;;;;;15.48;4.50;;;;;;;;;;5053149;28;20041;-59
2022/05/08 05:48:00;;;;;;;18.20;4.50;;;;;;;;;;5051151;28;20055;-58
2022/05/08 05:50:27;;;;;;;17.98;4.60;;;;;;;;;;5052632;28;20033;-59
2022/05/08 05:52:53;;;;;;;13.15;4.63;;;;;;;;;;5053039;28;20051;-59
2022/05/08 05:55:19;;;;;;;14.23;4.78;;;;;;;;;;5052533;28;20043;-59
2022/05/08 05:57:46;;;;;;;14.73;4.32;;;;;;;;;;5052897;28;20040;-59
2022/05/08 06:00:16;;;;;;;17.58;5.03;;;;;;;;;;5052918;28;20087;-59
2022/05/08 06:02:43;;;;;;;12.80;4.72;;;;;;;;;;5050842;28;20411;-59
2022/05/08 06:05:10;;;;;;;15.98;4.65;;;;;;;;;;5053107;28;20478;-58
2022/05/08 06:07:37;;;;;;;21.92;4.60;;;;;;;;;;5053583;28;20080;-59
2022/05/08 06:10:10;;;;;;;15.38;3.80;;;;;;;;;;5034579;28;20033;-60
2022/05/08 06:12:36;;;;;;;17.02;4.25;;;;;;;;;;5051794;28;20561;-60
2022/05/08 06:15:03;;;;;;;14.00;3.78;;;;;;;;;;5050990;28;20224;-60
2022/05/08 06:17:29;;;;;;;11.45;3.58;;;;;;;;;;5042982;28;20642;-60
2022/05/08 06:19:55;;;;;;;11.40;3.45;;;;;;;;;;5051984;28;20170;-60
2022/05/08 06:22:21;;;;;;;13.65;3.80;;;;;;;;;;5052023;28;20041;-60
2022/05/08 06:24:47;;;;;;;10.13;3.33;;;;;;;;;;5053449;28;20060;-60
2022/05/08 06:27:13;;;;;;;10.43;2.88;;;;;;;;;;5049501;28;20122;-60
2022/05/08 06:29:39;;;;;;;11.07;3.47;;;;;;;;;;5045181;28;20060;-60
2022/05/08 06:32:05;;;;;;;9.95;3.38;;;;;;;;;;5044353;28;20029;-60
2022/05/08 06:34:33;;;;;;;10.82;2.83;;;;;;;;;;5049919;28;20033;-60
2022/05/08 06:36:59;;;;;;;14.73;2.60;;;;;;;;;;5051788;28;20048;-60
2022/05/08 06:39:26;;;;;;;10.38;2.50;;;;;;;;;;5051943;28;20040;-60
2022/05/08 06:41:52;;;;;;;15.43;2.83;;;;;;;;;;5052407;28;20119;-60
2022/05/08 06:44:17;;;;;;;10.95;2.88;;;;;;;;;;5044224;28;20478;-60
2022/05/08 06:46:43;;;;;;;11.05;2.10;;;;;;;;;;5046206;28;20037;-60
2022/05/08 06:49:09;;;;;;;12.73;2.90;;;;;;;;;;5051211;28;20060;-60
2022/05/08 06:51:35;;;;;;;10.32;2.65;;;;;;;;;;5052053;28;20072;-60
2022/05/08 06:54:01;;;;;;;10.93;2.80;;;;;;;;;;5029006;28;20025;-60
2022/05/08 06:56:31;;;;;;;10.95;2.85;;;;;;;;;;5028778;28;20048;-60
2022/05/08 07:01:43;;;;;;;10.63;2.83;;;;;;;;;;5046141;28;20068;-60
2022/05/08 07:04:10;;;;;;;9.73;2.65;;;;;;;;;;5035093;28;20049;-60
2022/05/08 07:06:36;;;;;;;10.50;2.42;;;;;;;;;;5050394;28;20129;-60
2022/05/08 07:09:03;;;;;;;7.65;1.85;;;;;;;;;;5051803;28;20029;-60
2022/05/08 07:11:30;;;;;;;9.35;2.05;;;;;;;;;;5048347;28;20048;-60
2022/05/08 07:13:56;;;;;;;8.93;1.92;;;;;;;;;;5051243;28;20447;-60
2022/05/08 07:16:22;;;;;;;9.07;1.95;;;;;;;;;;5032265;28;20528;-60
2022/05/08 07:18:48;;;;;;;8.45;2.10;;;;;;;;;;5051083;28;20037;-60
2022/05/08 07:21:14;;;;;;;8.45;2.33;;;;;;;;;;5048274;28;20060;-60
2022/05/08 07:23:40;;;;;;;6.72;2.20;;;;;;;;;;5051030;28;20051;-60
2022/05/08 07:26:06;;;;;;;7.07;1.92;;;;;;;;;;5031159;28;20048;-60
2022/05/08 07:28:32;;;;;;;9.95;2.65;;;;;;;;;;5050691;28;20059;-60
2022/05/08 07:30:58;;;;;;;10.35;2.17;;;;;;;;;;5049709;28;20079;-60
2022/05/08 07:33:25;;;;;;;11.10;2.42;;;;;;;;;;5050212;28;20037;-60
2022/05/08 07:38:36;;;;;;;7.70;1.80;;;;;;;;;;5048812;28;20042;-60
2022/05/08 07:41:02;;;;;;;9.38;2.08;;;;;;;;;;5050960;28;20124;-60
2022/05/08 07:43:28;;;;;;;9.45;2.30;;;;;;;;;;5050442;28;20037;-60
2022/05/08 07:45:54;;;;;;;5.78;2.10;;;;;;;;;;5047745;28;20045;-60
2022/05/08 07:48:20;;;;;;;6.82;2.28;;;;;;;;;;5031853;28;20131;-60
2022/05/08 07:50:46;;;;;;;14.80;2.42;;;;;;;;;;5049589;28;20040;-60
2022/05/08 07:53:13;;;;;;;12.05;2.75;;;;;;;;;;5050163;28;20041;-60
2022/05/08 07:55:39;;;;;;;9.75;2.08;;;;;;;;;;5044642;28;20036;-60
2022/05/08 07:58:05;;;;;;;11.27;2.78;;;;;;;;;;5032101;28;20132;-60
2022/05/08 08:00:31;;;;;;;10.18;2.55;;;;;;;;;;5030564;28;20132;-60
2022/05/08 08:02:57;;;;;;;8.43;2.45;;;;;;;;;;5049530;28;20033;-60
2022/05/08 08:05:23;;;;;;;5.97;2.13;;;;;;;;;;5049998;28;20048;-60
2022/05/08 08:07:50;;;;;;;6.38;2.40;;;;;;;;;;5049647;28;20033;-60
2022/05/08 08:10:16;;;;;;;10.38;2.60;;;;;;;;;;5049595;28;20036;-60
2022/05/08 08:12:42;;;;;;;9.85;2.42;;;;;;;;;;5048967;28;20071;-60
2022/05/08 08:15:09;;;;;;;10.18;2.67;;;;;;;;;;5049130;28;20029;-60
2022/05/08 08:17:35;;;;;;;10.35;2.70;;;;;;;;;;5050264;28;20037;-60
2022/05/08 08:20:01;;;;;;;9.25;2.60;;;;;;;;;;5031522;28;20052;-60
2022/05/08 08:22:27;;;;;;;8.95;2.72;;;;;;;;;;5048717;28;20407;-60
2022/05/08 08:24:53;;;;;;;11.77;2.60;;;;;;;;;;5048652;28;20072;-60
2022/05/08 08:27:19;;;;;;;8.63;2.60;;;;;;;;;;5062947;28;20064;-60
2022/05/08 08:29:45;;;;;;;8.70;2.58;;;;;;;;;;5044348;28;20460;-60
2022/05/08 08:32:11;;;;;;;12.43;2.60;;;;;;;;;;5047837;28;20116;-60
2022/05/08 08:34:37;;;;;;;6.50;2.10;;;;;;;;;;5048193;28;20052;-60
2022/05/08 08:37:03;;;;;;;9.68;2.72;;;;;;;;;;5044884;28;20045;-60
2022/05/08 08:39:30;;;;;;;8.68;2.40;;;;;;;;;;5048858;28;20044;-60
2022/05/08 08:42:19;;;;;;;10.40;2.35;;;;;;;;;;5045519;28;20036;-59
2022/05/08 08:47:45;;;;;;;9.52;2.67;;;;;;;;;;5024689;28;20046;-61
2022/05/08 08:50:11;;;;;;;23.80;3.38;;;;;;;;;;5026376;28;20049;-61
2022/05/08 08:52:37;;;;;;;10.60;2.40;;;;;;;;;;5027159;28;20041;-61
2022/05/08 08:55:06;;;;;;;11.00;3.00;;;;;;;;;;5027972;28;20044;-61
2022/05/08 08:57:32;;;;;;;4.82;1.90;;;;;;;;;;5027337;28;20557;-61
2022/05/08 08:59:58;;;;;;;8.55;2.42;;;;;;;;;;5025276;28;20073;-61
2022/05/08 09:02:24;;;;;;;8.75;2.28;;;;;;;;;;5027169;28;20087;-61
2022/05/08 09:04:51;;;;;;;9.57;2.30;;;;;;;;;;5028085;28;20034;-61
2022/05/08 09:07:37;;;;;;;12.32;3.33;;;;;;;;;;5028057;28;20060;-61
2022/05/08 09:10:09;;;;;;;10.75;2.72;;;;;;;;;;5032275;28;20052;-61
2022/05/08 09:12:35;;;;;;;7.55;2.63;;;;;;;;;;5030517;28;20391;-61
2022/05/08 09:15:18;;;;;;;11.02;2.63;;;;;;;;;;5025904;28;20037;-62
2022/05/08 09:17:44;;;;;;;8.55;2.88;;;;;;;;;;5023375;28;20045;-61
2022/05/08 09:20:26;;;;;;;7.47;2.40;;;;;;;;;;5008240;28;20046;-61
2022/05/08 09:22:51;;;;;;;;;;;;;;;;;;5028697;28;20049;-61
2022/05/08 09:25:17;;;;;;;8.45;2.53;;;;;;;;;;5034034;28;19923;-62
2022/05/08 09:27:59;;;;;;;10.40;2.65;;;;;;;;;;5032728;28;20052;-61
2022/05/08 09:30:26;;;;;;;7.78;2.33;;;;;;;;;;5026747;28;20056;-62
2022/05/08 09:32:52;;;;;;;7.82;2.15;;;;;;;;;;5030916;28;20112;-62
2022/05/08 09:35:18;;;;;;;7.13;2.20;;;;;;;;;;5030750;28;20152;-62
2022/05/08 09:37:54;;;;;;;8.93;2.28;;;;;;;;;;5031489;28;20503;-62
2022/05/08 09:40:21;;;;;;;7.97;1.90;;;;;;;;;;5031688;28;20041;-62
2022/05/08 09:42:47;;;;;;;7.82;2.25;;;;;;;;;;5032128;28;20120;-63
2022/05/08 09:45:13;;;;;;;7.95;2.03;;;;;;;;;;5034222;28;20081;-62
2022/05/08 09:47:39;;;;;;;8.13;2.45;;;;;;;;;;5029330;28;20037;-62
2022/05/08 09:50:07;;;;;;;11.73;2.33;;;;;;;;;;5023518;28;20118;-63
2022/05/08 09:52:33;;;;;;;10.43;2.60;;;;;;;;;;5019707;28;20037;-61
2022/05/08 09:55:01;;;;;;;8.65;2.17;;;;;;;;;;5033203;28;20044;-61
2022/05/08 09:57:27;;;;;;;7.78;2.17;;;;;;;;;;5030853;28;20041;-62
2022/05/08 09:59:53;;;;;;;6.00;1.75;;;;;;;;;;5026340;28;20053;-61
2022/05/08 10:02:20;;;;;;;7.32;2.08;;;;;;;;;;5039394;28;20045;-62
2022/05/08 10:04:47;;;;;;;9.07;2.30;;;;;;;;;;5033146;28;20510;-62
2022/05/08 10:07:13;;;;;;;7.88;2.95;;;;;;;;;;5029670;28;20117;-62
2022/05/08 10:15:28;;;;;;;6.78;2.40;;;;;;;;;;5031750;28;20042;-62
2022/05/08 10:18:14;;;;;;;12.68;2.42;;;;;;;;;;5028495;28;20042;-62
2022/05/08 10:20:58;;;;;;;5.22;1.90;;;;;;;;;;5028123;28;20114;-62
2022/05/08 10:23:34;;;;;;;9.77;2.40;;;;;;;;;;5030660;28;20049;-62
2022/05/08 10:26:14;;;;;;;5.68;2.13;;;;;;;;;;5028546;28;20091;-62
2022/05/08 10:28:59;;;;;;;7.20;2.07;;;;;;;;;;5020626;28;20061;-63
2022/05/08 10:31:55;;;;;;;8.27;1.90;;;;;;;;;;5031234;28;20040;-62
2022/05/08 10:34:31;;;;;;;7.53;2.50;;;;;;;;;;5004534;28;20042;-62
2022/05/08 10:37:12;;;;;;;5.85;1.67;;;;;;;;;;5027425;28;20048;-62
2022/05/08 10:39:39;;;;;;;;;;;;;;;;;;5025554;28;20068;-63
2022/05/08 10:42:05;;;;;;;7.65;1.85;;;;;;;;;;5032536;28;19960;-63
2022/05/08 10:44:40;;;;;;;8.90;2.30;;;;;;;;;;5029805;28;20041;-63
2022/05/08 10:47:25;;;;;;;10.38;2.67;;;;;;;;;;5011219;28;20048;-63
2022/05/08 10:49:51;;;;;;;7.65;1.92;;;;;;;;;;5025401;28;20037;-63
2022/05/08 10:52:17;;;;;;;5.78;1.85;;;;;;;;;;5023507;28;20041;-63
2022/05/08 10:54:55;;;;;;;11.23;2.13;;;;;;;;;;5026492;28;20049;-63
2022/05/08 10:57:30;;;;;;;6.03;2.03;;;;;;;;;;5019336;28;20049;-63
2022/05/08 10:59:56;;;;;;;7.95;2.03;;;;;;;;;;5024553;28;20041;-63
2022/05/08 11:02:42;;;;;;;8.98;2.28;;;;;;;;;;5028569;28;20045;-63
2022/05/08 11:05:09;;;;;;;9.98;2.08;;;;;;;;;;5023514;28;20049;-62
2022/05/08 11:07:35;;;;;;;8.27;2.30;;;;;;;;;;5031296;28;20076;-63
2022/05/08 11:10:01;;;;;;;7.75;2.10;;;;;;;;;;5030683;28;20107;-62
2022/05/08 11:12:28;;;;;;;9.05;2.53;;;;;;;;;;5031812;28;20112;-62
2022/05/08 11:15:07;;;;;;;8.05;2.13;;;;;;;;;;5024652;28;20046;-62
2022/05/08 11:17:33;;;;;;;10.70;2.53;;;;;;;;;;5029671;28;20407;-62
2022/05/08 11:19:59;;;;;;;8.20;1.52;;;;;;;;;;5026923;28;20048;-62
2022/05/08 11:22:25;;;;;;;3.97;1.63;;;;;;;;;;5011438;28;20587;-62
2022/05/08 11:24:51;;;;;;;6.15;1.67;;;;;;;;;;5030908;28;20049;-62
2022/05/08 11:27:17;;;;;;;5.60;1.42;;;;;;;;;;5013821;28;20380;-62
2022/05/08 11:29:47;;;;;;;7.60;1.65;;;;;;;;;;5029459;28;20037;-61
2022/05/08 11:38:01;;;;;;;5.38;1.88;;;;;;;;;;5026029;28;20487;-63
2022/05/08 11:40:28;;;;;;;7.85;1.98;;;;;;;;;;5024249;28;20131;-61
2022/05/08 11:42:54;;;;;;;6.22;1.95;;;;;;;;;;5029156;28;20048;-62
2022/05/08 11:45:20;;;;;;;8.50;2.00;;;;;;;;;;5029228;28;20045;-62
2022/05/08 11:47:53;;;;;;;7.15;1.83;;;;;;;;;;5030383;28;20056;-62
2022/05/08 11:50:20;;;;;;;10.93;2.20;;;;;;;;;;5030645;28;20116;-61
2022/05/08 11:52:46;;;;;;;9.05;2.33;;;;;;;;;;5023237;28;20474;-61
2022/05/08 11:55:13;;;;;;;8.82;1.80;;;;;;;;;;5030799;28;20061;-63
2022/05/08 11:57:43;;;;;;;9.95;2.10;;;;;;;;;;5028747;28;20523;-63
2022/05/08 12:00:10;;;;;;;5.75;1.92;;;;;;;;;;5029937;28;20077;-63
2022/05/08 12:02:43;;;;;;;7.60;1.80;;;;;;;;;;5031434;28;20038;-64
2022/05/08 12:05:18;;;;;;;5.88;1.90;;;;;;;;;;5028312;28;20612;-63
2022/05/08 12:08:08;;;;;;;7.18;1.90;;;;;;;;;;5027451;28;20068;-64
2022/05/08 12:10:38;;;;;;;8.25;1.85;;;;;;;;;;5023500;28;20048;-64
2022/05/08 12:13:05;;;;;;;8.25;1.85;;;;;;;;;;5031344;28;20124;-64
2022/05/08 12:15:32;;;;;;;9.90;2.13;;;;;;;;;;5021012;28;20045;-63
2022/05/08 12:18:01;;;;;;;6.57;1.90;;;;;;;;;;5023957;28;20037;-63
2022/05/08 12:20:34;;;;;;;8.07;2.00;;;;;;;;;;5021806;28;20517;-62
2022/05/08 12:23:01;;;;;;;7.15;1.63;;;;;;;;;;5029273;28;20061;-63
2022/05/08 12:25:28;;;;;;;7.38;1.95;;;;;;;;;;5026774;28;20088;-63
2022/05/08 12:27:54;;;;;;;6.78;1.80;;;;;;;;;;5025713;28;20073;-63
2022/05/08 12:30:20;;;;;;;7.72;1.52;;;;;;;;;;5030229;28;20432;-63
2022/05/08 12:32:46;;;;;;;5.68;2.08;;;;;;;;;;5031370;28;20041;-63
2022/05/08 12:35:12;;;;;;;9.35;1.80;;;;;;;;;;5022076;28;20118;-63
2022/05/08 12:37:38;;;;;;;6.55;2.08;;;;;;;;;;5026496;28;20535;-63
2022/05/08 12:40:06;;;;;;;6.95;1.83;;;;;;;;;;5030650;28;20128;-63
2022/05/08 12:42:32;;;;;;;9.65;2.60;;;;;;;;;;5030090;28;20511;-63
2022/05/08 12:44:58;;;;;;;8.98;2.35;;;;;;;;;;5035046;28;20045;-62
2022/05/08 12:47:24;;;;;;;6.57;1.90;;;;;;;;;;5035131;28;20050;-63
2022/05/08 12:49:50;;;;;;;8.48;2.15;;;;;;;;;;5033595;28;20396;-63
2022/05/08 12:52:16;;;;;;;9.50;2.13;;;;;;;;;;5033283;28;20049;-63
2022/05/08 12:54:42;;;;;;;7.45;3.08;;;;;;;;;;5031707;28;20112;-63
2022/05/08 12:57:10;;;;;;;9.27;2.38;;;;;;;;;;5034143;28;20041;-63
2022/05/08 12:59:42;;;;;;;7.50;2.00;;;;;;;;;;5027431;28;20064;-63
2022/05/08 13:02:10;;;;;;;5.40;1.98;;;;;;;;;;5029095;28;20204;-63
2022/05/08 13:04:37;;;;;;;8.38;2.17;;;;;;;;;;5034103;28;20128;-63
2022/05/08 13:07:03;;;;;;;9.13;2.30;;;;;;;;;;5031874;28;20034;-63
2022/05/08 13:09:29;;;;;;;11.93;2.60;;;;;;;;;;5030513;28;20048;-63
2022/05/08 13:11:55;;;;;;;12.15;2.17;;;;;;;;;;5029422;28;20037;-63
2022/05/08 13:14:21;;;;;;;7.22;2.00;;;;;;;;;;5031705;28;20125;-63
2022/05/08 13:16:47;;;;;;;6.47;2.30;;;;;;;;;;5024163;28;20119;-63
2022/05/08 13:19:12;;;;;;;6.05;2.22;;;;;;;;;;5027685;28;20610;-63
2022/05/08 13:21:40;;;;;;;4.72;1.90;;;;;;;;;;5028199;28;20074;-63
2022/05/08 13:24:07;;;;;;;9.63;1.90;;;;;;;;;;5028879;28;20041;-63
2022/05/08 13:26:33;;;;;;;7.22;2.33;;;;;;;;;;5032771;28;20434;-63
2022/05/08 13:28:59;;;;;;;6.50;2.00;;;;;;;;;;5032278;28;20112;-63
2022/05/08 13:31:25;;;;;;;7.25;2.20;;;;;;;;;;5023402;28;20080;-63
2022/05/08 13:33:51;;;;;;;12.23;2.20;;;;;;;;;;5031897;28;20041;-63
2022/05/08 13:36:17;;;;;;;6.50;1.98;;;;;;;;;;5030296;28;20103;-63
2022/05/08 13:38:45;;;;;;;7.38;2.10;;;;;;;;;;5025369;28;20052;-63
2022/05/08 13:41:12;;;;;;;9.52;2.50;;;;;;;;;;5027842;28;21196;-63
2022/05/08 13:43:39;;;;;;;4.90;1.60;;;;;;;;;;5035119;28;20119;-63
2022/05/08 13:46:05;;;;;;;7.88;2.25;;;;;;;;;;5027932;28;20513;-63
2022/05/08 13:48:31;;;;;;;6.90;2.00;;;;;;;;;;5027621;28;20515;-63
2022/05/08 13:50:58;;;;;;;6.18;1.73;;;;;;;;;;5028251;28;20056;-62
2022/05/08 13:53:24;;;;;;;9.45;2.25;;;;;;;;;;5032166;28;20045;-62
2022/05/08 13:55:54;;;;;;;8.10;1.83;;;;;;;;;;5013203;28;20068;-63
2022/05/08 13:58:20;;;;;;;6.47;2.00;;;;;;;;;;5025966;28;20112;-62
2022/05/08 14:00:48;;;;;;;6.70;2.15;;;;;;;;;;5036931;28;20141;-62
2022/05/08 14:03:15;;;;;;;7.03;1.83;;;;;;;;;;5025731;28;20044;-62
2022/05/08 14:05:41;;;;;;;7.30;1.92;;;;;;;;;;5025843;28;20033;-62
2022/05/08 14:08:08;;;;;;;6.82;1.80;;;;;;;;;;5026270;28;20060;-61
2022/05/08 14:10:35;;;;;;;7.15;1.85;;;;;;;;;;5027300;28;20038;-62
2022/05/08 14:13:01;;;;;;;5.00;1.83;;;;;;;;;;5031863;28;20045;-62
2022/05/08 14:15:27;;;;;;;7.10;2.03;;;;;;;;;;5028668;28;20034;-61
2022/05/08 14:17:53;;;;;;;9.45;2.00;;;;;;;;;;5022071;28;20037;-62
2022/05/08 14:20:19;;;;;;;7.95;2.08;;;;;;;;;;5024136;28;20459;-63
2022/05/08 14:22:45;;;;;;;6.95;2.20;;;;;;;;;;5033524;28;20510;-63
2022/05/08 14:25:12;;;;;;;7.68;2.47;;;;;;;;;;5032580;28;20041;-63
2022/05/08 14:27:38;;;;;;;6.03;1.70;;;;;;;;;;5029343;28;20107;-63
2022/05/08 14:30:09;;;;;;;7.18;1.95;;;;;;;;;;5028061;28;20041;-63
2022/05/08 14:38:06;;;;;;;6.53;2.03;;;;;;;;;;5011709;28;20046;-63
2022/05/08 14:40:32;;;;;;;8.68;2.15;;;;;;;;;;5012059;28;20088;-63
2022/05/08 14:42:58;;;;;;;8.05;2.58;;;;;;;;;;5009070;28;20176;-63
2022/05/08 14:47:53;;;;;;;5.88;1.77;;;;;;;;;;5019397;28;20047;-59
2022/05/08 14:50:19;;;;;;;5.40;1.60;;;;;;;;;;5025874;28;20482;-59
2022/05/08 14:52:46;;;;;;;4.82;1.80;;;;;;;;;;5022678;28;20037;-59
2022/05/08 14:55:13;;;;;;;7.28;1.98;;;;;;;;;;5026426;28;20040;-59
2022/05/08 14:57:40;;;;;;;7.20;2.03;;;;;;;;;;5025104;28;20045;-59
2022/05/08 15:00:06;;;;;;;9.90;2.10;;;;;;;;;;5019786;28;20046;-59
2022/05/08 15:02:33;;;;;;;7.40;2.13;;;;;;;;;;5019072;28;20846;-59
2022/05/08 15:04:59;;;;;;;5.88;1.92;;;;;;;;;;5008552;28;20423;-59
2022/05/08 15:07:25;;;;;;;8.77;2.28;;;;;;;;;;5007997;28;20037;-59
2022/05/08 15:09:51;;;;;;;7.80;1.60;;;;;;;;;;5005555;28;20499;-59
2022/05/08 15:12:17;;;;;;;6.82;2.22;;;;;;;;;;5024023;28;20041;-59
2022/05/08 15:14:44;;;;;;;5.40;1.73;;;;;;;;;;5025291;28;20033;-59